sensor_id;sensor_type;location;lat;lon;timestamp;P1;durP1;ratioP1;P2;durP2;ratioP2
29848;SDS011;16728;50.832;5.590;2022-07-22T00:02:40;13.23;;;5.30;;
29848;SDS011;16728;50.832;5.590;2022-07-22T00:05:42;17.83;;;6.25;;
29848;SDS011;16728;50.832;5.590;2022-07-22T00:08:44;16.17;;;5.50;;
29848;SDS011;16728;50.832;5.590;2022-07-22T00:11:46;19.48;;;5.72;;
29848;SDS011;16728;50.832;5.590;2022-07-22T00:14:48;15.48;;;6.00;;
29848;SDS011;16728;50.832;5.590;2022-07-22T00:17:49;16.95;;;6.20;;
29848;SDS011;16728;50.832;5.590;2022-07-22T00:20:52;19.23;;;5.53;;
29848;SDS011;16728;50.832;5.590;2022-07-22T00:23:54;22.10;;;6.07;;
29848;SDS011;16728;50.832;5.590;2022-07-22T00:26:55;14.75;;;5.50;;
29848;SDS011;16728;50.832;5.590;2022-07-22T00:29:57;16.50;;;5.72;;
29848;SDS011;16728;50.832;5.590;2022-07-22T00:33:02;21.70;;;6.18;;
29848;SDS011;16728;50.832;5.590;2022-07-22T00:36:07;17.20;;;6.68;;
29848;SDS011;16728;50.832;5.590;2022-07-22T00:39:10;14.27;;;5.63;;
29848;SDS011;16728;50.832;5.590;2022-07-22T00:42:11;17.30;;;5.88;;
29848;SDS011;16728;50.832;5.590;2022-07-22T00:45:13;15.63;;;5.72;;
29848;SDS011;16728;50.832;5.590;2022-07-22T00:48:15;15.35;;;6.15;;
29848;SDS011;16728;50.832;5.590;2022-07-22T00:51:18;15.60;;;6.18;;
29848;SDS011;16728;50.832;5.590;2022-07-22T00:54:21;12.90;;;5.88;;
29848;SDS011;16728;50.832;5.590;2022-07-22T00:57:23;11.07;;;4.53;;
29848;SDS011;16728;50.832;5.590;2022-07-22T01:00:27;11.45;;;5.18;;
29848;SDS011;16728;50.832;5.590;2022-07-22T01:03:30;10.67;;;4.80;;
29848;SDS011;16728;50.832;5.590;2022-07-22T01:06:32;16.45;;;5.05;;
29848;SDS011;16728;50.832;5.590;2022-07-22T01:09:34;10.02;;;5.05;;
29848;SDS011;16728;50.832;5.590;2022-07-22T01:12:36;9.40;;;4.40;;
29848;SDS011;16728;50.832;5.590;2022-07-22T01:15:38;11.77;;;4.40;;
29848;SDS011;16728;50.832;5.590;2022-07-22T01:18:41;11.40;;;4.43;;
29848;SDS011;16728;50.832;5.590;2022-07-22T01:21:43;9.00;;;4.63;;
29848;SDS011;16728;50.832;5.590;2022-07-22T01:24:45;11.35;;;4.72;;
29848;SDS011;16728;50.832;5.590;2022-07-22T01:27:47;9.68;;;4.30;;
29848;SDS011;16728;50.832;5.590;2022-07-22T01:30:49;8.57;;;3.80;;
29848;SDS011;16728;50.832;5.590;2022-07-22T01:33:52;8.40;;;4.20;;
29848;SDS011;16728;50.832;5.590;2022-07-22T01:36:54;9.00;;;4.10;;
29848;SDS011;16728;50.832;5.590;2022-07-22T01:39:56;9.60;;;3.92;;
29848;SDS011;16728;50.832;5.590;2022-07-22T01:42:58;11.13;;;3.83;;
29848;SDS011;16728;50.832;5.590;2022-07-22T01:46:00;9.88;;;3.95;;
29848;SDS011;16728;50.832;5.590;2022-07-22T01:49:02;9.38;;;4.18;;
29848;SDS011;16728;50.832;5.590;2022-07-22T01:52:04;7.50;;;3.72;;
29848;SDS011;16728;50.832;5.590;2022-07-22T01:55:07;13.02;;;4.13;;
29848;SDS011;16728;50.832;5.590;2022-07-22T01:58:10;6.95;;;3.95;;
29848;SDS011;16728;50.832;5.590;2022-07-22T02:01:12;9.75;;;4.13;;
29848;SDS011;16728;50.832;5.590;2022-07-22T02:04:14;9.38;;;3.85;;
29848;SDS011;16728;50.832;5.590;2022-07-22T02:07:16;7.88;;;4.03;;
29848;SDS011;16728;50.832;5.590;2022-07-22T02:10:18;9.20;;;3.72;;
29848;SDS011;16728;50.832;5.590;2022-07-22T02:13:20;8.85;;;4.07;;
29848;SDS011;16728;50.832;5.590;2022-07-22T02:16:25;12.40;;;4.50;;
29848;SDS011;16728;50.832;5.590;2022-07-22T02:19:27;10.07;;;4.35;;
29848;SDS011;16728;50.832;5.590;2022-07-22T02:22:28;9.15;;;3.85;;
29848;SDS011;16728;50.832;5.590;2022-07-22T02:25:30;8.57;;;4.00;;
29848;SDS011;16728;50.832;5.590;2022-07-22T02:28:32;13.93;;;4.53;;
29848;SDS011;16728;50.832;5.590;2022-07-22T02:31:35;10.52;;;3.95;;
29848;SDS011;16728;50.832;5.590;2022-07-22T02:34:37;9.60;;;3.95;;
29848;SDS011;16728;50.832;5.590;2022-07-22T02:37:40;11.50;;;4.95;;
29848;SDS011;16728;50.832;5.590;2022-07-22T02:40:43;12.52;;;4.65;;
29848;SDS011;16728;50.832;5.590;2022-07-22T02:43:48;8.05;;;4.07;;
29848;SDS011;16728;50.832;5.590;2022-07-22T02:46:50;8.95;;;4.20;;
29848;SDS011;16728;50.832;5.590;2022-07-22T02:49:52;8.13;;;4.35;;
29848;SDS011;16728;50.832;5.590;2022-07-22T02:52:53;10.20;;;4.20;;
29848;SDS011;16728;50.832;5.590;2022-07-22T02:55:55;8.55;;;4.13;;
29848;SDS011;16728;50.832;5.590;2022-07-22T02:58:57;7.10;;;4.00;;
29848;SDS011;16728;50.832;5.590;2022-07-22T03:02:00;10.80;;;5.10;;
29848;SDS011;16728;50.832;5.590;2022-07-22T03:05:02;10.43;;;4.00;;
29848;SDS011;16728;50.832;5.590;2022-07-22T03:11:07;7.13;;;4.25;;
29848;SDS011;16728;50.832;5.590;2022-07-22T03:14:09;7.53;;;3.90;;
29848;SDS011;16728;50.832;5.590;2022-07-22T03:17:11;11.25;;;4.22;;
29848;SDS011;16728;50.832;5.590;2022-07-22T03:20:13;7.55;;;4.10;;
29848;SDS011;16728;50.832;5.590;2022-07-22T03:23:14;9.60;;;4.18;;
29848;SDS011;16728;50.832;5.590;2022-07-22T03:26:16;12.32;;;4.63;;
29848;SDS011;16728;50.832;5.590;2022-07-22T03:29:18;6.97;;;4.43;;
29848;SDS011;16728;50.832;5.590;2022-07-22T03:32:20;8.00;;;3.80;;
29848;SDS011;16728;50.832;5.590;2022-07-22T03:35:22;7.47;;;4.00;;
29848;SDS011;16728;50.832;5.590;2022-07-22T03:38:24;5.75;;;4.10;;
29848;SDS011;16728;50.832;5.590;2022-07-22T03:41:26;8.85;;;4.47;;
29848;SDS011;16728;50.832;5.590;2022-07-22T03:44:28;5.38;;;4.38;;
29848;SDS011;16728;50.832;5.590;2022-07-22T03:47:29;7.25;;;4.68;;
29848;SDS011;16728;50.832;5.590;2022-07-22T03:50:31;5.13;;;3.65;;
29848;SDS011;16728;50.832;5.590;2022-07-22T03:53:33;8.70;;;4.47;;
29848;SDS011;16728;50.832;5.590;2022-07-22T03:56:35;10.32;;;4.88;;
29848;SDS011;16728;50.832;5.590;2022-07-22T03:59:37;5.35;;;3.90;;
29848;SDS011;16728;50.832;5.590;2022-07-22T04:02:39;8.80;;;4.30;;
29848;SDS011;16728;50.832;5.590;2022-07-22T04:05:41;7.00;;;4.35;;
29848;SDS011;16728;50.832;5.590;2022-07-22T04:08:43;6.53;;;4.15;;
29848;SDS011;16728;50.832;5.590;2022-07-22T04:11:46;6.93;;;4.38;;
29848;SDS011;16728;50.832;5.590;2022-07-22T04:14:48;9.40;;;4.18;;
29848;SDS011;16728;50.832;5.590;2022-07-22T04:17:49;8.60;;;4.38;;
29848;SDS011;16728;50.832;5.590;2022-07-22T04:20:51;9.23;;;4.32;;
29848;SDS011;16728;50.832;5.590;2022-07-22T04:23:53;11.45;;;4.57;;
29848;SDS011;16728;50.832;5.590;2022-07-22T04:27:02;9.30;;;4.20;;
29848;SDS011;16728;50.832;5.590;2022-07-22T04:30:04;6.50;;;4.00;;
29848;SDS011;16728;50.832;5.590;2022-07-22T04:33:06;6.20;;;3.70;;
29848;SDS011;16728;50.832;5.590;2022-07-22T04:36:09;5.63;;;3.72;;
29848;SDS011;16728;50.832;5.590;2022-07-22T04:39:11;6.43;;;4.20;;
29848;SDS011;16728;50.832;5.590;2022-07-22T04:42:12;6.00;;;4.28;;
29848;SDS011;16728;50.832;5.590;2022-07-22T04:45:14;5.45;;;4.20;;
29848;SDS011;16728;50.832;5.590;2022-07-22T04:48:16;9.63;;;4.85;;
29848;SDS011;16728;50.832;5.590;2022-07-22T04:51:18;8.27;;;4.43;;
29848;SDS011;16728;50.832;5.590;2022-07-22T04:54:20;11.75;;;4.15;;
29848;SDS011;16728;50.832;5.590;2022-07-22T04:57:23;9.57;;;4.72;;
29848;SDS011;16728;50.832;5.590;2022-07-22T05:00:25;6.97;;;3.97;;
29848;SDS011;16728;50.832;5.590;2022-07-22T05:06:30;6.65;;;4.60;;
29848;SDS011;16728;50.832;5.590;2022-07-22T05:09:32;8.55;;;3.80;;
29848;SDS011;16728;50.832;5.590;2022-07-22T05:12:35;7.35;;;3.78;;
29848;SDS011;16728;50.832;5.590;2022-07-22T05:15:37;10.35;;;4.45;;
29848;SDS011;16728;50.832;5.590;2022-07-22T05:18:39;7.47;;;3.95;;
29848;SDS011;16728;50.832;5.590;2022-07-22T05:21:41;5.45;;;3.65;;
29848;SDS011;16728;50.832;5.590;2022-07-22T05:24:42;6.00;;;3.17;;
29848;SDS011;16728;50.832;5.590;2022-07-22T05:27:50;8.10;;;3.95;;
29848;SDS011;16728;50.832;5.590;2022-07-22T05:30:54;3.80;;;2.90;;
29848;SDS011;16728;50.832;5.590;2022-07-22T05:33:56;6.85;;;3.13;;
29848;SDS011;16728;50.832;5.590;2022-07-22T05:36:58;5.57;;;2.80;;
29848;SDS011;16728;50.832;5.590;2022-07-22T05:40:00;5.00;;;2.95;;
29848;SDS011;16728;50.832;5.590;2022-07-22T05:43:03;4.43;;;2.50;;
29848;SDS011;16728;50.832;5.590;2022-07-22T05:46:05;4.55;;;2.60;;
29848;SDS011;16728;50.832;5.590;2022-07-22T05:49:08;6.32;;;2.70;;
29848;SDS011;16728;50.832;5.590;2022-07-22T05:52:10;3.83;;;2.72;;
29848;SDS011;16728;50.832;5.590;2022-07-22T05:55:12;5.22;;;2.90;;
29848;SDS011;16728;50.832;5.590;2022-07-22T05:58:14;3.88;;;2.53;;
29848;SDS011;16728;50.832;5.590;2022-07-22T06:01:16;2.78;;;2.40;;
29848;SDS011;16728;50.832;5.590;2022-07-22T06:04:18;6.50;;;2.30;;
29848;SDS011;16728;50.832;5.590;2022-07-22T06:07:22;4.32;;;2.35;;
29848;SDS011;16728;50.832;5.590;2022-07-22T06:10:25;4.00;;;2.28;;
29848;SDS011;16728;50.832;5.590;2022-07-22T06:13:27;2.75;;;2.30;;
29848;SDS011;16728;50.832;5.590;2022-07-22T06:16:29;3.97;;;2.25;;
29848;SDS011;16728;50.832;5.590;2022-07-22T06:19:31;4.47;;;2.50;;
29848;SDS011;16728;50.832;5.590;2022-07-22T06:22:33;5.07;;;2.70;;
29848;SDS011;16728;50.832;5.590;2022-07-22T06:25:35;4.55;;;2.67;;
29848;SDS011;16728;50.832;5.590;2022-07-22T06:28:44;5.35;;;2.60;;
29848;SDS011;16728;50.832;5.590;2022-07-22T06:31:46;3.67;;;2.17;;
29848;SDS011;16728;50.832;5.590;2022-07-22T06:34:48;4.82;;;2.40;;
29848;SDS011;16728;50.832;5.590;2022-07-22T06:37:50;3.47;;;2.58;;
29848;SDS011;16728;50.832;5.590;2022-07-22T06:41:08;5.63;;;2.88;;
29848;SDS011;16728;50.832;5.590;2022-07-22T06:44:10;7.07;;;2.67;;
29848;SDS011;16728;50.832;5.590;2022-07-22T06:47:12;3.63;;;2.85;;
29848;SDS011;16728;50.832;5.590;2022-07-22T06:50:14;4.70;;;2.75;;
29848;SDS011;16728;50.832;5.590;2022-07-22T06:53:16;6.85;;;2.70;;
29848;SDS011;16728;50.832;5.590;2022-07-22T06:56:17;5.47;;;3.05;;
29848;SDS011;16728;50.832;5.590;2022-07-22T06:59:20;7.30;;;3.38;;
29848;SDS011;16728;50.832;5.590;2022-07-22T07:02:22;8.27;;;3.20;;
29848;SDS011;16728;50.832;5.590;2022-07-22T07:05:24;6.25;;;2.70;;
29848;SDS011;16728;50.832;5.590;2022-07-22T07:08:29;4.47;;;2.85;;
29848;SDS011;16728;50.832;5.590;2022-07-22T07:11:31;6.60;;;3.10;;
29848;SDS011;16728;50.832;5.590;2022-07-22T07:14:33;3.92;;;2.95;;
29848;SDS011;16728;50.832;5.590;2022-07-22T07:17:35;5.07;;;2.70;;
29848;SDS011;16728;50.832;5.590;2022-07-22T07:20:37;8.20;;;2.88;;
29848;SDS011;16728;50.832;5.590;2022-07-22T07:23:39;8.23;;;3.20;;
29848;SDS011;16728;50.832;5.590;2022-07-22T07:26:41;6.50;;;3.42;;
29848;SDS011;16728;50.832;5.590;2022-07-22T07:29:43;7.47;;;3.90;;
29848;SDS011;16728;50.832;5.590;2022-07-22T07:32:46;4.55;;;3.42;;
29848;SDS011;16728;50.832;5.590;2022-07-22T07:35:48;4.80;;;3.40;;
29848;SDS011;16728;50.832;5.590;2022-07-22T07:38:50;7.47;;;3.20;;
29848;SDS011;16728;50.832;5.590;2022-07-22T07:41:52;7.03;;;3.15;;
29848;SDS011;16728;50.832;5.590;2022-07-22T07:44:55;6.18;;;2.83;;
29848;SDS011;16728;50.832;5.590;2022-07-22T07:47:58;5.68;;;2.65;;
29848;SDS011;16728;50.832;5.590;2022-07-22T07:51:00;5.93;;;3.00;;
29848;SDS011;16728;50.832;5.590;2022-07-22T07:54:02;8.85;;;2.95;;
29848;SDS011;16728;50.832;5.590;2022-07-22T07:57:05;8.63;;;3.20;;
29848;SDS011;16728;50.832;5.590;2022-07-22T08:00:09;7.22;;;2.60;;
29848;SDS011;16728;50.832;5.590;2022-07-22T08:03:13;4.05;;;2.50;;
29848;SDS011;16728;50.832;5.590;2022-07-22T08:06:15;6.13;;;2.72;;
29848;SDS011;16728;50.832;5.590;2022-07-22T08:09:17;3.53;;;2.63;;
29848;SDS011;16728;50.832;5.590;2022-07-22T08:12:19;7.05;;;2.65;;
29848;SDS011;16728;50.832;5.590;2022-07-22T08:15:21;6.40;;;2.70;;
29848;SDS011;16728;50.832;5.590;2022-07-22T08:18:26;8.20;;;2.55;;
29848;SDS011;16728;50.832;5.590;2022-07-22T08:24:31;7.50;;;2.83;;
29848;SDS011;16728;50.832;5.590;2022-07-22T08:27:33;8.32;;;3.17;;
29848;SDS011;16728;50.832;5.590;2022-07-22T08:30:35;7.18;;;2.90;;
29848;SDS011;16728;50.832;5.590;2022-07-22T08:33:37;8.27;;;3.33;;
29848;SDS011;16728;50.832;5.590;2022-07-22T08:36:39;8.93;;;3.83;;
29848;SDS011;16728;50.832;5.590;2022-07-22T08:39:41;6.43;;;3.17;;
29848;SDS011;16728;50.832;5.590;2022-07-22T08:42:43;5.35;;;3.03;;
29848;SDS011;16728;50.832;5.590;2022-07-22T08:45:46;7.97;;;3.65;;
29848;SDS011;16728;50.832;5.590;2022-07-22T08:48:49;5.35;;;2.80;;
29848;SDS011;16728;50.832;5.590;2022-07-22T08:51:53;7.03;;;3.25;;
29848;SDS011;16728;50.832;5.590;2022-07-22T08:54:55;10.27;;;3.78;;
29848;SDS011;16728;50.832;5.590;2022-07-22T08:57:57;5.20;;;3.33;;
29848;SDS011;16728;50.832;5.590;2022-07-22T09:04:10;11.65;;;3.38;;
29848;SDS011;16728;50.832;5.590;2022-07-22T09:07:12;8.45;;;3.20;;
29848;SDS011;16728;50.832;5.590;2022-07-22T09:10:29;7.20;;;3.20;;
29848;SDS011;16728;50.832;5.590;2022-07-22T09:13:33;8.07;;;3.55;;
29848;SDS011;16728;50.832;5.590;2022-07-22T09:19:40;5.53;;;3.10;;
29848;SDS011;16728;50.832;5.590;2022-07-22T09:22:43;10.55;;;4.70;;
29848;SDS011;16728;50.832;5.590;2022-07-22T09:25:46;5.65;;;3.83;;
29848;SDS011;16728;50.832;5.590;2022-07-22T09:28:55;6.40;;;3.63;;
29848;SDS011;16728;50.832;5.590;2022-07-22T09:32:00;6.93;;;3.60;;
29848;SDS011;16728;50.832;5.590;2022-07-22T09:35:04;7.35;;;3.70;;
29848;SDS011;16728;50.832;5.590;2022-07-22T09:38:08;6.83;;;3.80;;
29848;SDS011;16728;50.832;5.590;2022-07-22T09:41:11;6.55;;;3.42;;
29848;SDS011;16728;50.832;5.590;2022-07-22T09:44:21;7.78;;;3.45;;
29848;SDS011;16728;50.832;5.590;2022-07-22T09:47:30;6.55;;;3.85;;
29848;SDS011;16728;50.832;5.590;2022-07-22T09:50:39;7.65;;;3.88;;
29848;SDS011;16728;50.832;5.590;2022-07-22T09:53:41;7.32;;;3.65;;
29848;SDS011;16728;50.832;5.590;2022-07-22T09:56:43;9.60;;;4.18;;
29848;SDS011;16728;50.832;5.590;2022-07-22T09:59:47;6.13;;;3.58;;
29848;SDS011;16728;50.832;5.590;2022-07-22T10:02:51;5.53;;;4.10;;
29848;SDS011;16728;50.832;5.590;2022-07-22T10:05:56;7.75;;;3.78;;
29848;SDS011;16728;50.832;5.590;2022-07-22T10:08:58;6.28;;;3.95;;
29848;SDS011;16728;50.832;5.590;2022-07-22T10:12:08;9.23;;;5.15;;
29848;SDS011;16728;50.832;5.590;2022-07-22T10:15:11;5.97;;;4.13;;
29848;SDS011;16728;50.832;5.590;2022-07-22T10:18:17;8.68;;;4.45;;
29848;SDS011;16728;50.832;5.590;2022-07-22T10:21:20;7.95;;;4.95;;
29848;SDS011;16728;50.832;5.590;2022-07-22T10:24:33;8.00;;;5.20;;
29848;SDS011;16728;50.832;5.590;2022-07-22T10:34:27;7.70;;;4.85;;
29848;SDS011;16728;50.832;5.590;2022-07-22T10:44:12;7.45;;;4.80;;
29848;SDS011;16728;50.832;5.590;2022-07-22T10:47:14;9.52;;;4.88;;
29848;SDS011;16728;50.832;5.590;2022-07-22T10:53:44;7.03;;;5.15;;
29848;SDS011;16728;50.832;5.590;2022-07-22T10:56:48;9.73;;;5.63;;
29848;SDS011;16728;50.832;5.590;2022-07-22T10:59:53;7.03;;;5.35;;
29848;SDS011;16728;50.832;5.590;2022-07-22T11:02:56;6.90;;;4.72;;
29848;SDS011;16728;50.832;5.590;2022-07-22T11:06:14;8.45;;;6.18;;
29848;SDS011;16728;50.832;5.590;2022-07-22T11:09:17;7.85;;;5.70;;
29848;SDS011;16728;50.832;5.590;2022-07-22T11:12:21;7.60;;;5.80;;
29848;SDS011;16728;50.832;5.590;2022-07-22T11:15:25;11.80;;;7.05;;
29848;SDS011;16728;50.832;5.590;2022-07-22T11:18:43;8.68;;;5.95;;
29848;SDS011;16728;50.832;5.590;2022-07-22T11:21:57;9.18;;;6.78;;
29848;SDS011;16728;50.832;5.590;2022-07-22T11:25:02;9.93;;;6.28;;
29848;SDS011;16728;50.832;5.590;2022-07-22T11:28:08;12.73;;;8.02;;
29848;SDS011;16728;50.832;5.590;2022-07-22T11:31:12;10.65;;;7.65;;
29848;SDS011;16728;50.832;5.590;2022-07-22T11:34:16;8.75;;;7.18;;
29848;SDS011;16728;50.832;5.590;2022-07-22T11:37:19;10.25;;;7.65;;
29848;SDS011;16728;50.832;5.590;2022-07-22T11:40:30;12.25;;;6.88;;
29848;SDS011;16728;50.832;5.590;2022-07-22T11:43:37;10.50;;;6.85;;
29848;SDS011;16728;50.832;5.590;2022-07-22T11:46:41;12.65;;;7.68;;
29848;SDS011;16728;50.832;5.590;2022-07-22T11:52:53;12.15;;;7.63;;
29848;SDS011;16728;50.832;5.590;2022-07-22T11:55:56;12.18;;;7.90;;
29848;SDS011;16728;50.832;5.590;2022-07-22T11:58:59;9.60;;;8.27;;
29848;SDS011;16728;50.832;5.590;2022-07-22T12:02:06;12.20;;;8.25;;
29848;SDS011;16728;50.832;5.590;2022-07-22T12:05:11;10.02;;;8.48;;
29848;SDS011;16728;50.832;5.590;2022-07-22T12:08:34;11.52;;;8.70;;
29848;SDS011;16728;50.832;5.590;2022-07-22T12:11:42;9.90;;;8.48;;
29848;SDS011;16728;50.832;5.590;2022-07-22T12:14:46;10.48;;;8.32;;
29848;SDS011;16728;50.832;5.590;2022-07-22T12:20:51;10.57;;;8.82;;
29848;SDS011;16728;50.832;5.590;2022-07-22T12:23:56;22.67;;;8.75;;
29848;SDS011;16728;50.832;5.590;2022-07-22T12:30:12;11.07;;;9.05;;
29848;SDS011;16728;50.832;5.590;2022-07-22T12:33:15;12.32;;;8.27;;
29848;SDS011;16728;50.832;5.590;2022-07-22T12:36:18;11.98;;;9.10;;
29848;SDS011;16728;50.832;5.590;2022-07-22T12:39:20;12.65;;;7.63;;
29848;SDS011;16728;50.832;5.590;2022-07-22T12:42:22;10.73;;;7.50;;
29848;SDS011;16728;50.832;5.590;2022-07-22T12:45:27;10.25;;;7.60;;
29848;SDS011;16728;50.832;5.590;2022-07-22T12:48:30;10.77;;;8.27;;
29848;SDS011;16728;50.832;5.590;2022-07-22T12:51:31;9.02;;;8.07;;
29848;SDS011;16728;50.832;5.590;2022-07-22T12:54:34;12.93;;;6.68;;
29848;SDS011;16728;50.832;5.590;2022-07-22T12:57:37;11.65;;;7.15;;
29848;SDS011;16728;50.832;5.590;2022-07-22T13:00:41;11.95;;;7.55;;
29848;SDS011;16728;50.832;5.590;2022-07-22T13:04:02;13.48;;;8.38;;
29848;SDS011;16728;50.832;5.590;2022-07-22T13:07:04;12.20;;;8.57;;
29848;SDS011;16728;50.832;5.590;2022-07-22T13:10:06;13.98;;;8.70;;
29848;SDS011;16728;50.832;5.590;2022-07-22T13:13:09;10.43;;;7.72;;
29848;SDS011;16728;50.832;5.590;2022-07-22T13:16:11;13.93;;;7.88;;
29848;SDS011;16728;50.832;5.590;2022-07-22T13:19:13;11.60;;;7.15;;
29848;SDS011;16728;50.832;5.590;2022-07-22T13:22:15;8.85;;;7.00;;
29848;SDS011;16728;50.832;5.590;2022-07-22T13:25:17;11.27;;;7.53;;
29848;SDS011;16728;50.832;5.590;2022-07-22T13:28:19;11.25;;;6.70;;
29848;SDS011;16728;50.832;5.590;2022-07-22T13:31:21;8.70;;;7.00;;
29848;SDS011;16728;50.832;5.590;2022-07-22T13:34:23;9.77;;;6.72;;
29848;SDS011;16728;50.832;5.590;2022-07-22T13:37:25;10.27;;;7.90;;
29848;SDS011;16728;50.832;5.590;2022-07-22T13:40:27;9.68;;;8.68;;
29848;SDS011;16728;50.832;5.590;2022-07-22T13:43:29;9.90;;;8.13;;
29848;SDS011;16728;50.832;5.590;2022-07-22T13:46:33;12.00;;;8.40;;
29848;SDS011;16728;50.832;5.590;2022-07-22T13:49:36;11.93;;;8.27;;
29848;SDS011;16728;50.832;5.590;2022-07-22T13:52:38;12.88;;;8.50;;
29848;SDS011;16728;50.832;5.590;2022-07-22T13:55:40;13.90;;;9.15;;
29848;SDS011;16728;50.832;5.590;2022-07-22T13:58:43;14.00;;;9.05;;
29848;SDS011;16728;50.832;5.590;2022-07-22T14:01:45;9.82;;;7.07;;
29848;SDS011;16728;50.832;5.590;2022-07-22T14:04:47;8.98;;;6.72;;
29848;SDS011;16728;50.832;5.590;2022-07-22T14:07:49;9.85;;;6.70;;
29848;SDS011;16728;50.832;5.590;2022-07-22T14:10:51;9.55;;;6.75;;
29848;SDS011;16728;50.832;5.590;2022-07-22T14:13:53;9.60;;;7.43;;
29848;SDS011;16728;50.832;5.590;2022-07-22T14:16:56;11.38;;;8.00;;
29848;SDS011;16728;50.832;5.590;2022-07-22T14:19:59;12.13;;;6.80;;
29848;SDS011;16728;50.832;5.590;2022-07-22T14:23:02;10.68;;;6.57;;
29848;SDS011;16728;50.832;5.590;2022-07-22T14:26:06;8.45;;;6.18;;
29848;SDS011;16728;50.832;5.590;2022-07-22T14:29:08;9.88;;;6.45;;
29848;SDS011;16728;50.832;5.590;2022-07-22T14:32:10;8.63;;;6.38;;
29848;SDS011;16728;50.832;5.590;2022-07-22T14:35:12;8.73;;;5.50;;
29848;SDS011;16728;50.832;5.590;2022-07-22T14:38:14;10.07;;;5.97;;
29848;SDS011;16728;50.832;5.590;2022-07-22T14:41:16;9.15;;;6.65;;
29848;SDS011;16728;50.832;5.590;2022-07-22T14:44:18;7.97;;;6.80;;
29848;SDS011;16728;50.832;5.590;2022-07-22T14:47:20;12.40;;;6.03;;
29848;SDS011;16728;50.832;5.590;2022-07-22T14:50:22;7.55;;;5.43;;
29848;SDS011;16728;50.832;5.590;2022-07-22T14:53:24;10.23;;;6.13;;
29848;SDS011;16728;50.832;5.590;2022-07-22T14:56:26;10.90;;;7.13;;
29848;SDS011;16728;50.832;5.590;2022-07-22T14:59:28;21.98;;;6.70;;
29848;SDS011;16728;50.832;5.590;2022-07-22T15:02:30;7.72;;;5.80;;
29848;SDS011;16728;50.832;5.590;2022-07-22T15:05:32;7.25;;;5.50;;
29848;SDS011;16728;50.832;5.590;2022-07-22T15:08:34;7.13;;;5.93;;
29848;SDS011;16728;50.832;5.590;2022-07-22T15:11:37;6.00;;;4.93;;
29848;SDS011;16728;50.832;5.590;2022-07-22T15:14:39;6.82;;;5.30;;
29848;SDS011;16728;50.832;5.590;2022-07-22T15:17:40;9.90;;;6.28;;
29848;SDS011;16728;50.832;5.590;2022-07-22T15:20:44;10.13;;;6.03;;
29848;SDS011;16728;50.832;5.590;2022-07-22T15:23:46;8.98;;;5.95;;
29848;SDS011;16728;50.832;5.590;2022-07-22T15:26:48;7.45;;;5.85;;
29848;SDS011;16728;50.832;5.590;2022-07-22T15:29:50;6.63;;;4.97;;
29848;SDS011;16728;50.832;5.590;2022-07-22T15:32:52;8.25;;;5.65;;
29848;SDS011;16728;50.832;5.590;2022-07-22T15:35:54;6.72;;;5.72;;
29848;SDS011;16728;50.832;5.590;2022-07-22T15:38:56;8.93;;;6.32;;
29848;SDS011;16728;50.832;5.590;2022-07-22T15:42:01;7.70;;;5.70;;
29848;SDS011;16728;50.832;5.590;2022-07-22T15:45:03;7.07;;;6.05;;
29848;SDS011;16728;50.832;5.590;2022-07-22T15:48:06;9.52;;;7.00;;
29848;SDS011;16728;50.832;5.590;2022-07-22T15:51:08;8.43;;;5.95;;
29848;SDS011;16728;50.832;5.590;2022-07-22T15:54:11;11.90;;;6.57;;
29848;SDS011;16728;50.832;5.590;2022-07-22T15:57:13;8.85;;;5.95;;
29848;SDS011;16728;50.832;5.590;2022-07-22T16:00:34;9.13;;;6.20;;
29848;SDS011;16728;50.832;5.590;2022-07-22T16:03:37;7.57;;;5.57;;
29848;SDS011;16728;50.832;5.590;2022-07-22T16:06:39;7.72;;;6.20;;
29848;SDS011;16728;50.832;5.590;2022-07-22T16:09:41;9.63;;;6.60;;
29848;SDS011;16728;50.832;5.590;2022-07-22T16:12:43;9.95;;;6.13;;
29848;SDS011;16728;50.832;5.590;2022-07-22T16:15:45;9.65;;;5.88;;
29848;SDS011;16728;50.832;5.590;2022-07-22T16:18:47;8.30;;;6.43;;
29848;SDS011;16728;50.832;5.590;2022-07-22T16:21:49;8.95;;;6.25;;
29848;SDS011;16728;50.832;5.590;2022-07-22T16:24:51;10.73;;;6.30;;
29848;SDS011;16728;50.832;5.590;2022-07-22T16:27:53;7.75;;;6.22;;
29848;SDS011;16728;50.832;5.590;2022-07-22T16:30:55;6.80;;;4.97;;
29848;SDS011;16728;50.832;5.590;2022-07-22T16:33:57;11.50;;;8.60;;
29848;SDS011;16728;50.832;5.590;2022-07-22T16:36:59;6.10;;;5.13;;
29848;SDS011;16728;50.832;5.590;2022-07-22T16:40:02;6.40;;;5.32;;
29848;SDS011;16728;50.832;5.590;2022-07-22T16:43:10;10.55;;;7.65;;
29848;SDS011;16728;50.832;5.590;2022-07-22T16:46:12;8.82;;;6.50;;
29848;SDS011;16728;50.832;5.590;2022-07-22T16:49:14;6.77;;;6.03;;
29848;SDS011;16728;50.832;5.590;2022-07-22T16:52:16;6.75;;;5.15;;
29848;SDS011;16728;50.832;5.590;2022-07-22T16:55:18;9.07;;;5.32;;
29848;SDS011;16728;50.832;5.590;2022-07-22T16:58:20;9.13;;;5.03;;
29848;SDS011;16728;50.832;5.590;2022-07-22T17:01:23;6.17;;;4.07;;
29848;SDS011;16728;50.832;5.590;2022-07-22T17:04:25;6.43;;;4.75;;
29848;SDS011;16728;50.832;5.590;2022-07-22T17:07:28;6.97;;;4.30;;
29848;SDS011;16728;50.832;5.590;2022-07-22T17:10:30;7.40;;;3.85;;
29848;SDS011;16728;50.832;5.590;2022-07-22T17:13:32;5.43;;;3.75;;
29848;SDS011;16728;50.832;5.590;2022-07-22T17:16:34;5.25;;;3.70;;
29848;SDS011;16728;50.832;5.590;2022-07-22T17:19:36;6.03;;;3.67;;
29848;SDS011;16728;50.832;5.590;2022-07-22T17:22:38;4.55;;;3.72;;
29848;SDS011;16728;50.832;5.590;2022-07-22T17:25:40;8.10;;;3.80;;
29848;SDS011;16728;50.832;5.590;2022-07-22T17:28:42;4.20;;;3.28;;
29848;SDS011;16728;50.832;5.590;2022-07-22T17:31:43;7.25;;;3.63;;
29848;SDS011;16728;50.832;5.590;2022-07-22T17:34:45;5.60;;;3.63;;
29848;SDS011;16728;50.832;5.590;2022-07-22T17:37:48;7.63;;;3.65;;
29848;SDS011;16728;50.832;5.590;2022-07-22T17:40:50;6.13;;;3.80;;
29848;SDS011;16728;50.832;5.590;2022-07-22T17:43:52;7.28;;;4.03;;
29848;SDS011;16728;50.832;5.590;2022-07-22T17:46:54;6.60;;;4.13;;
29848;SDS011;16728;50.832;5.590;2022-07-22T17:49:56;6.55;;;3.65;;
29848;SDS011;16728;50.832;5.590;2022-07-22T17:52:58;10.55;;;4.10;;
29848;SDS011;16728;50.832;5.590;2022-07-22T17:56:00;8.85;;;4.25;;
29848;SDS011;16728;50.832;5.590;2022-07-22T17:59:22;6.13;;;3.92;;
29848;SDS011;16728;50.832;5.590;2022-07-22T18:02:24;7.90;;;3.25;;
29848;SDS011;16728;50.832;5.590;2022-07-22T18:05:28;6.88;;;3.55;;
29848;SDS011;16728;50.832;5.590;2022-07-22T18:08:30;6.33;;;3.63;;
29848;SDS011;16728;50.832;5.590;2022-07-22T18:11:32;5.22;;;3.58;;
29848;SDS011;16728;50.832;5.590;2022-07-22T18:14:34;4.20;;;3.58;;
29848;SDS011;16728;50.832;5.590;2022-07-22T18:17:35;6.97;;;3.65;;
29848;SDS011;16728;50.832;5.590;2022-07-22T18:20:38;7.70;;;3.60;;
29848;SDS011;16728;50.832;5.590;2022-07-22T18:23:40;8.25;;;3.95;;
29848;SDS011;16728;50.832;5.590;2022-07-22T18:26:41;7.18;;;3.90;;
29848;SDS011;16728;50.832;5.590;2022-07-22T18:29:44;5.38;;;3.53;;
29848;SDS011;16728;50.832;5.590;2022-07-22T18:32:46;11.20;;;3.60;;
29848;SDS011;16728;50.832;5.590;2022-07-22T18:35:47;7.38;;;3.25;;
29848;SDS011;16728;50.832;5.590;2022-07-22T18:38:49;37.28;;;4.95;;
29848;SDS011;16728;50.832;5.590;2022-07-22T18:41:51;7.75;;;3.63;;
29848;SDS011;16728;50.832;5.590;2022-07-22T18:44:53;6.88;;;3.78;;
29848;SDS011;16728;50.832;5.590;2022-07-22T18:48:01;6.07;;;3.40;;
29848;SDS011;16728;50.832;5.590;2022-07-22T18:51:03;9.60;;;3.90;;
29848;SDS011;16728;50.832;5.590;2022-07-22T18:54:07;7.53;;;3.92;;
29848;SDS011;16728;50.832;5.590;2022-07-22T18:57:10;5.45;;;3.45;;
29848;SDS011;16728;50.832;5.590;2022-07-22T19:00:12;7.28;;;3.70;;